Time;durP1;ratioP1;P1;durP2;ratioP2;P2;SDS_P1;SDS_P2;PMS_P1;PMS_P2;Temp;Humidity;BMP_temperature;BMP_pressure;BME280_temperature;BME280_humidity;BME280_pressure;Samples;Min_cycle;Max_cycle;Signal;HPM_P1;HPM_P2
2022/10/31 00:01:41;;;;;;;34.50;23.70;;;;;;;9.72;81.84;100498.54;124758;1297;96658;-75
2022/10/31 00:04:46;;;;;;;37.00;25.20;;;;;;;9.72;81.76;100492.98;124952;1296;97426;-75
2022/10/31 00:07:55;;;;;;;35.80;24.20;;;;;;;9.75;81.81;100490.80;124870;1310;97636;-74
2022/10/31 00:11:00;;;;;;;36.30;24.60;;;;;;;9.77;81.60;100492.75;124774;1307;96691;-77
2022/10/31 00:14:06;;;;;;;36.10;23.80;;;;;;;9.76;82.00;100492.42;124957;1296;97839;-76
2022/10/31 00:17:11;;;;;;;36.20;23.80;;;;;;;9.79;82.12;100491.23;125022;1290;97423;-75
2022/10/31 00:20:17;;;;;;;32.80;22.90;;;;;;;9.80;81.63;100493.70;124972;1297;97717;-75
2022/10/31 00:23:22;;;;;;;30.80;20.70;;;;;;;9.77;82.06;100492.59;125035;1302;97827;-75
2022/10/31 00:26:29;;;;;;;26.90;18.70;;;;;;;9.73;82.19;100496.61;124908;1296;96648;-75
2022/10/31 00:29:34;;;;;;;27.30;20.40;;;;;;;9.74;82.15;100498.70;124757;1316;97870;-74
2022/10/31 00:32:40;;;;;;;30.90;20.10;;;;;;;9.75;81.89;100498.96;125032;1297;97412;-74
2022/10/31 00:35:49;;;;;;;31.30;21.20;;;;;;;9.76;82.00;100500.84;124994;1296;97368;-75
2022/10/31 00:38:55;;;;;;;30.90;21.00;;;;;;;9.76;82.15;100502.02;124980;1295;97418;-75
2022/10/31 00:42:00;;;;;;;30.60;21.40;;;;;;;9.76;81.94;100502.08;124950;1298;96692;-77
2022/10/31 00:45:07;;;;;;;26.70;20.60;;;;;;;9.77;81.97;100505.70;124756;1311;96760;-75
2022/10/31 00:48:12;;;;;;;27.30;20.20;;;;;;;9.75;82.12;100508.35;124901;1306;97804;-75
2022/10/31 00:51:18;;;;;;;24.70;17.10;;;;;;;9.74;82.08;100505.78;124964;1297;97855;-77
2022/10/31 00:54:23;;;;;;;22.90;16.80;;;;;;;9.74;82.40;100504.48;124817;1299;96713;-74
2022/10/31 00:57:29;;;;;;;25.60;18.80;;;;;;;9.75;82.19;100506.73;124881;1292;97548;-74
2022/10/31 01:00:34;;;;;;;27.80;19.80;;;;;;;9.75;81.85;100503.53;124785;1299;96716;-74
2022/10/31 01:03:40;;;;;;;26.30;19.20;;;;;;;9.75;82.25;100505.33;124921;1297;97429;-74
2022/10/31 01:06:49;;;;;;;28.70;19.60;;;;;;;9.76;82.10;100504.73;125011;1296;98015;-74
2022/10/31 01:09:55;;;;;;;28.80;19.60;;;;;;;9.75;82.14;100496.80;124904;1299;98787;-74
2022/10/31 01:13:00;;;;;;;26.40;19.60;;;;;;;9.73;82.25;100503.55;124962;1310;99155;-75
2022/10/31 01:16:08;;;;;;;27.50;19.10;;;;;;;9.71;82.27;100499.80;124945;1297;99159;-75
2022/10/31 01:19:13;;;;;;;25.20;17.50;;;;;;;9.67;82.30;100498.07;124920;1296;98690;-75
2022/10/31 01:22:18;;;;;;;21.40;15.50;;;;;;;9.62;82.19;100500.45;124790;1300;98398;-76
2022/10/31 01:25:24;;;;;;;25.20;17.70;;;;;;;9.60;81.90;100499.23;124993;1306;98068;-75
2022/10/31 01:28:29;;;;;;;25.70;17.50;;;;;;;9.61;82.11;100499.90;124802;1299;99064;-75
2022/10/31 01:31:37;;;;;;;25.70;18.10;;;;;;;9.59;82.08;100496.64;124986;1295;98110;-76
2022/10/31 01:34:42;;;;;;;22.20;17.40;;;;;;;9.58;81.99;100496.05;124960;1300;99189;-75
2022/10/31 01:37:48;;;;;;;25.50;18.90;;;;;;;9.56;82.24;100493.98;124840;1299;99199;-75
2022/10/31 01:40:53;;;;;;;25.30;18.30;;;;;;;9.53;81.70;100492.47;124923;1305;99172;-75
2022/10/31 01:44:01;;;;;;;23.90;18.00;;;;;;;9.51;82.00;100492.86;124893;1305;99293;-76
2022/10/31 01:47:13;;;;;;;24.20;17.50;;;;;;;9.46;81.72;100494.50;124816;1298;98004;-75
2022/10/31 01:50:34;;;;;;;21.20;15.60;;;;;;;9.42;81.89;100495.94;124938;1313;99007;-75
2022/10/31 01:53:41;;;;;;;24.00;18.50;;;;;;;9.42;82.16;100498.52;124965;1296;99204;-75
2022/10/31 01:56:51;;;;;;;24.40;18.30;;;;;;;9.46;81.91;100495.21;124989;1305;99104;-75
2022/10/31 02:00:02;;;;;;;26.20;17.90;;;;;;;9.48;81.84;100495.23;125083;1306;99187;-76
2022/10/31 02:03:07;;;;;;;22.90;17.00;;;;;;;9.50;81.85;100492.58;124897;1305;99065;-75
2022/10/31 02:06:22;;;;;;;26.20;19.60;;;;;;;9.50;81.88;100492.72;124906;1313;98642;-75
2022/10/31 02:09:29;;;;;;;24.90;18.70;;;;;;;9.52;81.90;100495.77;125047;1306;99196;-75
2022/10/31 02:12:37;;;;;;;23.30;18.10;;;;;;;9.50;82.37;100499.67;124947;1297;98667;-75
2022/10/31 02:15:45;;;;;;;23.40;15.80;;;;;;;9.47;82.36;100503.29;125013;1310;98109;-75
2022/10/31 02:18:51;;;;;;;21.50;15.30;;;;;;;9.45;82.15;100500.66;124932;1294;98115;-75
2022/10/31 02:22:06;;;;;;;23.70;17.00;;;;;;;9.46;82.25;100496.30;124817;1300;98000;-75
2022/10/31 02:25:33;;;;;;;23.70;17.50;;;;;;;9.51;82.38;100498.16;124896;1305;98009;-75
2022/10/31 02:29:04;;;;;;;24.60;17.50;;;;;;;9.54;82.46;100499.05;124866;1306;98714;-75
2022/10/31 02:32:14;;;;;;;24.40;17.50;;;;;;;9.60;82.60;100507.58;124813;1297;98080;-75
2022/10/31 02:35:31;;;;;;;24.20;17.80;;;;;;;9.62;82.41;100506.31;124859;1305;99235;-75
2022/10/31 02:38:52;;;;;;;23.50;17.70;;;;;;;9.60;82.76;100508.70;124888;1297;99211;-75
2022/10/31 02:42:14;;;;;;;18.40;14.30;;;;;;;9.51;82.74;100504.16;124599;1298;207226;-75
2022/10/31 02:45:28;;;;;;;19.90;14.80;;;;;;;9.47;82.81;100507.20;124954;1307;99184;-76
2022/10/31 02:48:38;;;;;;;23.70;16.60;;;;;;;9.48;82.59;100508.70;125056;1292;98067;-75
2022/10/31 02:51:44;;;;;;;19.70;15.70;;;;;;;9.51;82.67;100511.48;124931;1297;98775;-75
2022/10/31 02:54:50;;;;;;;25.60;17.00;;;;;;;9.54;82.95;100512.27;125017;1299;98576;-75
2022/10/31 02:58:00;;;;;;;25.10;18.70;;;;;;;9.55;82.48;100510.56;125018;1304;98181;-75
2022/10/31 03:01:37;;;;;;;23.70;18.50;;;;;;;9.53;82.62;100514.95;124853;1298;99178;-76
2022/10/31 03:05:02;;;;;;;23.70;17.20;;;;;;;9.53;82.63;100519.81;124976;1306;98012;-75
2022/10/31 03:08:19;;;;;;;23.00;15.20;;;;;;;9.49;82.92;100522.30;124884;1298;98132;-75
2022/10/31 03:11:30;;;;;;;18.20;13.30;;;;;;;9.47;83.01;100524.61;124765;1296;98327;-75
2022/10/31 03:14:42;;;;;;;23.70;16.10;;;;;;;9.47;82.86;100526.36;125012;1295;98789;-75
2022/10/31 03:17:56;;;;;;;22.40;16.60;;;;;;;9.49;83.21;100525.10;124851;1297;98029;-75
2022/10/31 03:21:08;;;;;;;21.40;15.50;;;;;;;9.52;83.17;100523.31;124729;1302;101280;-77
2022/10/31 03:24:15;;;;;;;20.30;15.80;;;;;;;9.53;83.28;100525.11;125009;1297;98442;-74
2022/10/31 03:27:24;;;;;;;17.90;14.90;;;;;;;9.53;83.38;100522.27;125074;1299;98040;-75
2022/10/31 03:30:33;;;;;;;22.10;15.70;;;;;;;9.53;83.35;100522.78;124992;1299;98131;-75
2022/10/31 03:33:42;;;;;;;19.00;14.00;;;;;;;9.52;83.59;100522.39;125184;1300;99134;-75
2022/10/31 03:36:51;;;;;;;17.90;12.70;;;;;;;9.52;83.84;100522.02;125200;1297;99062;-76
2022/10/31 03:39:59;;;;;;;19.50;14.90;;;;;;;9.53;83.67;100518.75;125221;1289;98004;-76
2022/10/31 03:43:14;;;;;;;19.20;15.00;;;;;;;9.54;84.14;100519.89;125191;1312;98135;-76
2022/10/31 03:46:21;;;;;;;18.50;14.70;;;;;;;9.57;83.82;100519.95;124957;1289;99057;-76
2022/10/31 03:49:29;;;;;;;19.10;14.90;;;;;;;9.58;83.96;100522.33;124776;1307;98137;-76
2022/10/31 03:52:42;;;;;;;19.20;14.90;;;;;;;9.58;84.10;100530.66;124922;1299;98059;-75
2022/10/31 03:55:53;;;;;;;20.20;15.00;;;;;;;9.58;84.00;100534.27;125274;1297;98023;-76
2022/10/31 03:59:03;;;;;;;18.60;13.40;;;;;;;9.54;84.14;100536.98;125239;1297;98230;-78
2022/10/31 04:02:15;;;;;;;14.40;10.60;;;;;;;9.51;84.50;100538.65;124966;1302;98030;-76
2022/10/31 04:05:22;;;;;;;17.30;13.60;;;;;;;9.51;84.49;100537.55;125326;1289;98026;-75
2022/10/31 04:08:32;;;;;;;19.00;13.70;;;;;;;9.52;84.77;100538.86;125097;1291;98902;-75
2022/10/31 04:11:43;;;;;;;17.20;13.00;;;;;;;9.54;84.58;100542.06;124995;1297;98241;-76
2022/10/31 04:15:13;;;;;;;19.40;13.80;;;;;;;9.59;84.59;100549.27;125362;1295;101691;-76
2022/10/31 04:18:19;;;;;;;16.30;13.20;;;;;;;9.62;84.60;100547.90;125208;1297;97938;-75
2022/10/31 04:21:29;;;;;;;16.20;12.00;;;;;;;9.61;84.88;100551.19;124874;1299;99297;-75
2022/10/31 04:24:37;;;;;;;19.30;12.30;;;;;;;9.61;84.93;100550.16;125133;1296;99166;-76
2022/10/31 04:27:43;;;;;;;18.00;13.40;;;;;;;9.63;85.24;100554.20;125083;1300;98316;-76
2022/10/31 04:30:48;;;;;;;17.00;12.80;;;;;;;9.65;85.06;100556.55;125037;1295;98148;-76
2022/10/31 04:33:54;;;;;;;19.30;13.70;;;;;;;9.67;85.43;100563.42;124985;1298;101636;-76
2022/10/31 04:36:59;;;;;;;17.50;13.10;;;;;;;9.71;85.39;100567.02;124811;1302;98865;-76
2022/10/31 04:40:05;;;;;;;14.60;10.60;;;;;;;9.72;85.36;100569.36;124942;1297;98049;-75
2022/10/31 04:43:34;;;;;;;14.30;10.60;;;;;;;9.74;85.39;100566.23;124723;1312;98066;-76
2022/10/31 04:46:40;;;;;;;14.80;11.50;;;;;;;9.77;85.45;100568.72;124889;1306;99135;-76
2022/10/31 04:49:46;;;;;;;16.90;12.30;;;;;;;9.82;85.82;100566.00;125119;1298;98039;-77
2022/10/31 04:52:52;;;;;;;15.40;12.30;;;;;;;9.86;85.54;100564.73;125308;1305;98010;-74
2022/10/31 04:56:01;;;;;;;15.90;13.10;;;;;;;9.90;85.75;100561.92;124971;1305;99009;-75
2022/10/31 04:59:14;;;;;;;16.30;11.90;;;;;;;9.92;85.85;100557.66;125170;1297;98148;-75
2022/10/31 05:02:26;;;;;;;16.50;11.70;;;;;;;9.90;85.74;100562.41;125111;1306;98375;-75
2022/10/31 05:05:34;;;;;;;15.10;10.50;;;;;;;9.90;85.89;100564.91;125102;1306;99192;-75
2022/10/31 05:08:42;;;;;;;16.40;12.20;;;;;;;9.89;85.87;100564.14;125089;1305;99309;-76
2022/10/31 05:11:48;;;;;;;17.70;12.00;;;;;;;9.91;85.94;100560.41;125074;1297;99180;-75
2022/10/31 05:15:30;;;;;;;18.40;13.20;;;;;;;9.95;86.25;100558.80;125227;1295;98026;-75
2022/10/31 05:18:54;;;;;;;17.20;12.70;;;;;;;9.95;86.31;100560.38;125074;1295;98123;-75
2022/10/31 05:22:19;;;;;;;15.70;11.60;;;;;;;9.95;86.32;100564.23;124875;1306;98110;-75
2022/10/31 05:25:26;;;;;;;15.70;11.10;;;;;;;9.96;86.26;100565.46;124855;1297;98033;-75
2022/10/31 05:28:31;;;;;;;15.90;12.20;;;;;;;9.97;86.11;100566.75;125023;1292;99315;-75
2022/10/31 05:31:38;;;;;;;15.80;11.80;;;;;;;10.01;86.43;100566.22;124908;1310;99065;-74
2022/10/31 05:34:44;;;;;;;17.10;12.30;;;;;;;10.01;86.56;100565.09;125011;1307;98131;-75
2022/10/31 05:38:15;;;;;;;16.20;11.80;;;;;;;10.06;86.33;100564.35;124852;1318;99227;-74
2022/10/31 05:41:22;;;;;;;12.40;9.80;;;;;;;10.07;86.52;100569.02;124985;1305;98789;-77
2022/10/31 05:44:29;;;;;;;12.20;9.50;;;;;;;10.10;86.47;100570.75;124929;1297;99123;-74
2022/10/31 05:48:00;;;;;;;16.00;12.00;;;;;;;10.13;86.47;100575.92;125407;1300;98075;-75
2022/10/31 05:51:26;;;;;;;14.30;11.10;;;;;;;10.19;86.69;100574.84;124969;1293;98242;-74
2022/10/31 05:54:31;;;;;;;14.00;11.70;;;;;;;10.22;86.60;100576.29;125021;1308;98354;-75
2022/10/31 05:57:37;;;;;;;16.80;12.20;;;;;;;10.24;86.71;100575.25;124974;1303;99192;-74
2022/10/31 06:00:43;;;;;;;13.60;10.20;;;;;;;10.25;86.89;100576.59;124974;1299;99084;-74
2022/10/31 06:03:48;;;;;;;12.20;9.20;;;;;;;10.26;86.94;100575.80;124889;1306;98094;-77
2022/10/31 06:06:55;;;;;;;14.80;11.00;;;;;;;10.30;87.06;100577.81;124875;1300;98708;-75
2022/10/31 06:10:02;;;;;;;16.70;11.90;;;;;;;10.34;86.82;100576.02;124981;1301;98064;-75
2022/10/31 06:13:08;;;;;;;16.30;11.70;;;;;;;10.38;87.05;100573.88;125062;1306;99063;-75
2022/10/31 06:16:22;;;;;;;17.30;12.50;;;;;;;10.43;87.01;100571.80;125068;1297;99118;-74
2022/10/31 06:19:29;;;;;;;16.20;11.70;;;;;;;10.47;87.04;100571.42;125074;1297;99239;-74
2022/10/31 06:22:34;;;;;;;15.10;10.50;;;;;;;10.51;87.42;100575.95;124784;1308;98134;-73
2022/10/31 06:25:40;;;;;;;16.20;12.40;;;;;;;10.58;87.30;100584.95;124978;1302;98049;-72
2022/10/31 06:28:45;;;;;;;18.60;12.70;;;;;;;10.66;87.34;100583.33;124910;1305;98100;-72
2022/10/31 06:32:13;;;;;;;4.10;3.50;;;;;;;10.74;87.18;100587.34;124905;1302;98034;-71
2022/10/31 06:35:21;;;;;;;17.00;12.00;;;;;;;10.81;87.18;100588.10;124857;1304;99058;-72
2022/10/31 06:38:29;;;;;;;16.50;11.40;;;;;;;10.85;87.31;100586.45;124976;1306;99153;-72
2022/10/31 06:41:36;;;;;;;17.50;11.50;;;;;;;10.90;87.58;100591.82;125009;1297;99093;-72
2022/10/31 06:44:42;;;;;;;18.70;12.40;;;;;;;10.96;87.73;100592.30;125053;1306;98434;-75
2022/10/31 06:48:08;;;;;;;29.30;14.40;;;;;;;11.07;87.92;100593.46;125103;1297;98030;-75
2022/10/31 06:51:18;;;;;;;28.20;16.40;;;;;;;11.14;87.83;100593.46;125168;1303;99084;-74
2022/10/31 06:54:23;;;;;;;29.50;15.90;;;;;;;11.17;88.01;100593.50;125170;1306;98315;-76
2022/10/31 06:57:29;;;;;;;24.60;14.10;;;;;;;11.22;88.34;100597.70;125130;1295;98944;-75
2022/10/31 07:00:35;;;;;;;20.60;13.20;;;;;;;11.28;88.33;100600.48;125133;1299;98014;-75
2022/10/31 07:03:44;;;;;;;19.80;12.10;;;;;;;11.35;88.48;100600.17;125017;1305;98668;-75
2022/10/31 07:06:51;;;;;;;20.10;12.90;;;;;;;11.43;88.67;100602.48;124841;1303;97993;-75
2022/10/31 07:09:57;;;;;;;19.90;13.10;;;;;;;11.52;88.51;100603.90;125277;1300;99172;-74
2022/10/31 07:13:16;;;;;;;23.40;15.10;;;;;;;11.60;88.62;100601.68;125116;1296;98021;-75
2022/10/31 07:16:28;;;;;;;19.20;12.50;;;;;;;11.65;88.76;100601.17;124879;1300;99409;-73
2022/10/31 07:19:34;;;;;;;16.50;11.30;;;;;;;11.71;88.92;100606.10;125010;1304;99119;-72
2022/10/31 07:22:41;;;;;;;17.90;12.00;;;;;;;11.74;89.12;100604.31;125359;1302;98040;-74
2022/10/31 07:25:47;;;;;;;16.60;12.00;;;;;;;11.82;89.04;100609.31;125166;1296;99077;-74
2022/10/31 07:28:58;;;;;;;19.20;13.00;;;;;;;11.89;88.93;100612.41;125067;1309;99106;-74
2022/10/31 07:32:04;;;;;;;18.30;12.60;;;;;;;11.93;89.07;100618.18;124894;1299;99166;-75
2022/10/31 07:35:12;;;;;;;16.10;11.30;;;;;;;11.95;89.16;100619.07;125209;1302;98042;-73
2022/10/31 07:38:32;;;;;;;17.60;12.30;;;;;;;12.01;89.15;100619.52;125300;1302;98042;-74
2022/10/31 07:41:38;;;;;;;19.90;14.30;;;;;;;12.11;89.10;100621.09;125185;1297;99103;-74
2022/10/31 07:44:44;;;;;;;20.90;15.50;;;;;;;12.20;89.14;100624.60;124949;1309;99196;-74
2022/10/31 07:48:08;;;;;;;20.50;15.30;;;;;;;12.27;89.07;100631.04;125210;1296;99101;-73
2022/10/31 07:51:32;;;;;;;18.50;14.00;;;;;;;12.34;89.12;100629.46;125190;1295;98075;-73
2022/10/31 07:55:05;;;;;;;18.10;13.70;;;;;;;12.37;89.10;100631.86;125157;1296;98703;-72
2022/10/31 07:58:16;;;;;;;19.60;13.50;;;;;;;12.44;89.12;100630.58;125215;1296;98857;-72
2022/10/31 08:01:21;;;;;;;19.90;14.60;;;;;;;12.52;89.08;100634.71;125008;1303;98102;-72
2022/10/31 08:04:34;;;;;;;20.40;15.30;;;;;;;12.60;88.94;100632.70;125158;1305;98801;-71
2022/10/31 08:07:59;;;;;;;18.70;14.40;;;;;;;12.64;89.00;100635.38;125064;1312;98048;-77
2022/10/31 08:11:04;;;;;;;18.40;14.40;;;;;;;12.67;88.80;100635.05;124993;1313;98036;-71
2022/10/31 08:14:10;;;;;;;16.90;11.50;;;;;;;12.67;88.84;100639.96;124721;1306;98615;-73
2022/10/31 08:17:15;;;;;;;20.50;14.20;;;;;;;12.73;88.94;100639.58;124630;1310;98120;-72
2022/10/31 08:20:29;;;;;;;24.70;18.10;;;;;;;12.82;88.75;100642.92;124929;1298;98002;-72
2022/10/31 08:23:35;;;;;;;25.70;18.60;;;;;;;12.89;88.69;100647.34;124948;1307;98127;-72
2022/10/31 08:26:41;;;;;;;25.50;17.20;;;;;;;12.95;88.61;100643.49;125115;1313;98002;-72
2022/10/31 08:29:48;;;;;;;23.30;16.70;;;;;;;12.99;88.54;100642.58;124716;1315;99214;-72
2022/10/31 08:33:01;;;;;;;24.10;15.90;;;;;;;12.99;88.33;100643.58;124970;1319;99114;-73
2022/10/31 08:36:25;;;;;;;22.90;16.00;;;;;;;13.04;88.58;100647.82;124812;1313;100767;-71
2022/10/31 08:39:43;;;;;;;22.90;16.90;;;;;;;13.13;88.57;100646.36;124715;1319;98778;-72
2022/10/31 08:42:56;;;;;;;21.60;16.50;;;;;;;13.16;88.47;100646.68;124899;1311;99319;-72
2022/10/31 08:46:01;;;;;;;23.00;16.90;;;;;;;13.20;88.35;100646.73;124682;1315;98887;-72
2022/10/31 08:49:07;;;;;;;20.90;15.90;;;;;;;13.21;88.39;100647.83;124861;1304;98795;-72
2022/10/31 08:52:14;;;;;;;16.80;13.50;;;;;;;13.25;88.12;100647.12;124631;1309;98938;-71
2022/10/31 08:55:21;;;;;;;18.90;14.50;;;;;;;13.26;88.33;100650.48;124887;1319;98609;-72
2022/10/31 08:58:41;;;;;;;21.40;15.70;;;;;;;13.33;88.36;100655.02;124828;1313;99066;-72
2022/10/31 09:01:48;;;;;;;19.80;15.50;;;;;;;13.38;88.15;100654.45;124938;1313;99201;-71
2022/10/31 09:04:53;;;;;;;21.00;16.50;;;;;;;13.43;88.10;100653.08;124820;1313;99199;-74
2022/10/31 09:08:00;;;;;;;21.10;16.10;;;;;;;13.48;88.27;100654.37;124776;1312;98677;-73
2022/10/31 09:11:07;;;;;;;20.40;15.40;;;;;;;13.48;88.02;100658.13;124765;1306;99062;-73
2022/10/31 09:14:31;;;;;;;20.00;14.70;;;;;;;13.50;88.07;100652.70;125721;1312;98162;-73
2022/10/31 09:18:13;;;;;;;19.70;15.40;;;;;;;13.53;88.11;100651.51;124699;1313;98341;-73
2022/10/31 09:21:28;;;;;;;22.70;17.30;;;;;;;13.59;88.08;100650.63;124743;1313;99096;-73
2022/10/31 09:24:33;;;;;;;21.10;17.00;;;;;;;13.61;87.95;100652.73;124778;1316;99285;-74
2022/10/31 09:27:38;;;;;;;21.90;17.30;;;;;;;13.67;87.86;100653.77;125037;1319;98177;-74
2022/10/31 09:30:47;;;;;;;23.60;16.50;;;;;;;13.69;88.14;100650.88;125086;1313;98155;-73
2022/10/31 09:33:55;;;;;;;20.20;15.40;;;;;;;13.75;88.20;100657.91;125048;1312;101503;-73
2022/10/31 09:37:32;;;;;;;19.20;15.40;;;;;;;13.80;88.06;100659.92;124725;1307;99191;-71
2022/10/31 09:40:40;;;;;;;23.60;18.00;;;;;;;13.88;88.16;100661.29;124917;1313;98079;-72
2022/10/31 09:43:58;;;;;;;22.60;17.30;;;;;;;13.96;88.08;100665.37;124901;1309;98235;-72
2022/10/31 09:47:14;;;;;;;23.00;17.90;;;;;;;13.99;88.02;100666.41;124907;1319;98047;-72
2022/10/31 09:50:39;;;;;;;20.20;15.00;;;;;;;14.03;88.27;100666.85;125136;1312;98000;-74
2022/10/31 09:54:07;;;;;;;19.60;14.20;;;;;;;14.05;88.11;100665.59;125122;1313;99128;-72
2022/10/31 09:57:16;;;;;;;18.80;15.30;;;;;;;14.08;88.05;100671.13;124842;1319;98648;-72
2022/10/31 10:00:24;;;;;;;21.40;16.00;;;;;;;14.13;87.76;100669.34;125108;1313;99167;-72
2022/10/31 10:03:37;;;;;;;19.80;16.30;;;;;;;14.18;87.93;100668.33;125139;1312;98308;-72
2022/10/31 10:06:52;;;;;;;21.60;17.70;;;;;;;14.22;87.74;100668.27;125180;1306;98036;-72
2022/10/31 10:10:24;;;;;;;22.00;17.20;;;;;;;14.21;87.61;100666.05;124994;1313;99058;-72
2022/10/31 10:14:01;;;;;;;21.00;15.40;;;;;;;14.18;87.86;100666.04;125128;1319;98332;-72
2022/10/31 10:17:22;;;;;;;20.50;15.90;;;;;;;14.22;87.73;100661.46;125176;1313;98040;-72
2022/10/31 10:20:38;;;;;;;19.80;16.30;;;;;;;14.26;87.78;100659.95;125113;1312;99183;-72
2022/10/31 10:23:57;;;;;;;22.00;17.30;;;;;;;14.32;87.90;100659.86;124765;1306;99087;-72
2022/10/31 10:27:14;;;;;;;22.70;17.70;;;;;;;14.37;87.72;100664.16;124943;1319;98014;-72
2022/10/31 10:30:21;;;;;;;22.50;18.40;;;;;;;14.38;87.51;100666.55;124876;1319;99178;-72
2022/10/31 10:33:33;;;;;;;25.40;19.60;;;;;;;14.38;87.64;100662.98;124897;1319;99195;-74
2022/10/31 10:36:39;;;;;;;;;;;;;;;14.37;87.70;100663.59;124891;1305;98105;-72
2022/10/31 10:39:48;;;;;;;23.50;18.00;;;;;;;14.33;87.65;100671.27;124933;1313;98063;-72
2022/10/31 10:43:20;;;;;;;25.10;18.80;;;;;;;14.31;87.78;100673.19;124944;1313;99059;-72
2022/10/31 10:49:57;;;;;;;24.80;19.80;;;;;;;14.43;87.65;100672.54;124895;1313;98797;-72
2022/10/31 10:53:09;;;;;;;32.60;23.50;;;;;;;14.46;87.70;100671.71;124868;1313;98129;-72
2022/10/31 10:56:22;;;;;;;26.00;20.50;;;;;;;14.42;87.75;100669.45;124871;1320;98106;-72
2022/10/31 10:59:30;;;;;;;28.90;20.40;;;;;;;14.41;87.74;100666.00;124905;1319;98894;-72
2022/10/31 11:02:35;;;;;;;29.80;21.80;;;;;;;14.40;87.64;100662.48;124990;1315;99104;-73
2022/10/31 11:05:44;;;;;;;27.80;21.10;;;;;;;14.44;87.77;100664.02;125364;1297;98037;-72
2022/10/31 11:08:50;;;;;;;27.30;21.10;;;;;;;14.45;87.62;100669.42;125044;1302;99057;-73
2022/10/31 11:11:56;;;;;;;26.20;20.00;;;;;;;14.48;87.52;100666.42;125255;1296;99133;-73
2022/10/31 11:15:08;;;;;;;30.00;21.40;;;;;;;14.47;87.39;100665.14;124982;1298;99173;-73
2022/10/31 11:18:22;;;;;;;29.30;21.10;;;;;;;14.46;87.32;100668.69;125105;1292;99022;-73
2022/10/31 11:21:32;;;;;;;23.80;18.40;;;;;;;14.43;87.47;100670.80;125110;1297;98001;-75
2022/10/31 11:24:42;;;;;;;26.70;20.20;;;;;;;14.43;87.63;100665.80;125231;1297;98787;-72
2022/10/31 11:27:47;;;;;;;27.80;20.50;;;;;;;14.47;87.57;100663.02;125170;1305;98661;-72
2022/10/31 11:30:56;;;;;;;27.90;20.50;;;;;;;14.51;87.75;100663.48;125147;1289;99179;-72
2022/10/31 11:34:04;;;;;;;25.40;19.40;;;;;;;14.53;87.55;100657.34;125148;1307;99198;-72
2022/10/31 11:37:17;;;;;;;28.60;21.10;;;;;;;14.52;87.43;100658.84;125001;1312;98660;-73
2022/10/31 11:40:25;;;;;;;25.50;18.90;;;;;;;14.51;87.63;100660.16;125066;1299;99065;-74
2022/10/31 11:43:30;;;;;;;30.10;21.70;;;;;;;14.51;87.62;100659.29;124858;1306;99053;-73
2022/10/31 11:46:39;;;;;;;30.70;21.80;;;;;;;14.56;87.67;100658.33;125169;1295;98039;-73
2022/10/31 11:49:49;;;;;;;34.40;23.40;;;;;;;14.62;87.75;100653.91;125198;1296;98696;-74
2022/10/31 11:52:56;;;;;;;39.70;26.20;;;;;;;14.62;87.65;100653.13;125233;1297;98025;-74
2022/10/31 11:56:11;;;;;;;39.50;27.70;;;;;;;14.62;87.48;100651.20;125311;1297;98039;-75
2022/10/31 11:59:25;;;;;;;33.10;23.20;;;;;;;14.61;87.68;100650.63;125029;1289;99177;-73
2022/10/31 12:02:31;;;;;;;28.70;21.00;;;;;;;14.59;87.68;100650.48;125170;1299;98036;-74
2022/10/31 12:05:39;;;;;;;29.90;21.90;;;;;;;14.59;87.84;100650.30;124975;1305;99220;-75
2022/10/31 12:08:44;;;;;;;30.30;22.60;;;;;;;14.62;87.82;100646.92;125075;1298;99130;-73
2022/10/31 12:12:00;;;;;;;29.70;21.70;;;;;;;14.65;87.95;100643.33;125138;1295;98039;-73
2022/10/31 12:15:19;;;;;;;32.30;23.10;;;;;;;14.69;87.97;100644.30;125078;1302;98100;-74
2022/10/31 12:18:48;;;;;;;33.20;21.20;;;;;;;14.68;87.93;100647.52;124895;1290;99133;-71
2022/10/31 12:22:06;;;;;;;35.00;22.10;;;;;;;14.66;88.08;100645.40;125208;1296;98779;-72
2022/10/31 12:25:29;;;;;;;32.60;22.60;;;;;;;14.68;87.89;100644.80;125115;1306;99186;-72
2022/10/31 12:28:55;;;;;;;35.20;23.60;;;;;;;14.71;87.93;100637.27;124890;1297;98048;-74
2022/10/31 12:32:16;;;;;;;32.90;22.40;;;;;;;14.74;88.12;100638.36;125193;1305;98105;-74
2022/10/31 12:35:33;;;;;;;32.40;23.50;;;;;;;14.73;87.98;100635.58;124980;1300;99204;-72
2022/10/31 12:38:52;;;;;;;34.00;23.80;;;;;;;14.70;88.13;100638.29;125044;1305;98797;-73
2022/10/31 12:42:11;;;;;;;36.40;24.00;;;;;;;14.68;88.28;100637.24;125040;1304;98615;-74
2022/10/31 12:45:34;;;;;;;38.80;25.30;;;;;;;14.67;88.26;100637.24;124960;1298;99087;-74
2022/10/31 12:48:55;;;;;;;35.60;23.70;;;;;;;14.65;88.25;100640.27;124980;1299;99073;-75
2022/10/31 12:52:10;;;;;;;31.20;21.60;;;;;;;14.63;88.21;100645.20;125072;1300;98057;-73
2022/10/31 12:55:33;;;;;;;39.00;26.10;;;;;;;14.65;88.30;100645.27;124925;1296;98035;-73
2022/10/31 12:58:44;;;;;;;37.30;24.30;;;;;;;14.63;88.44;100643.27;124967;1304;98210;-74
2022/10/31 13:01:55;;;;;;;33.60;22.40;;;;;;;14.61;88.41;100643.98;124958;1289;98775;-73
2022/10/31 13:05:04;;;;;;;41.10;26.30;;;;;;;14.62;88.38;100643.12;124866;1297;98046;-74
2022/10/31 13:08:13;;;;;;;35.60;23.90;;;;;;;14.65;88.68;100641.79;124933;1304;98122;-73
2022/10/31 13:11:22;;;;;;;36.50;24.30;;;;;;;14.68;88.58;100637.98;125140;1297;98661;-74
2022/10/31 13:14:33;;;;;;;46.90;29.70;;;;;;;14.68;88.61;100640.09;125098;1297;99077;-73
2022/10/31 13:17:43;;;;;;;39.10;25.70;;;;;;;14.67;88.57;100639.36;125141;1306;99196;-74
2022/10/31 13:20:51;;;;;;;38.20;24.40;;;;;;;14.65;88.64;100635.94;125045;1299;98460;-75
2022/10/31 13:24:00;;;;;;;40.40;26.40;;;;;;;14.65;88.63;100635.17;125018;1295;98036;-74
2022/10/31 13:27:14;;;;;;;39.50;25.10;;;;;;;14.65;88.77;100639.20;125248;1303;98022;-75
2022/10/31 13:30:22;;;;;;;40.30;25.30;;;;;;;14.65;88.97;100640.34;125062;1296;98059;-74
2022/10/31 13:33:31;;;;;;;38.40;25.70;;;;;;;14.64;88.93;100641.89;124996;1297;98142;-73
2022/10/31 13:36:41;;;;;;;34.20;21.70;;;;;;;14.60;88.92;100643.77;125105;1307;99168;-73
2022/10/31 13:40:03;;;;;;;39.50;24.10;;;;;;;14.56;88.96;100642.91;124993;1306;98086;-73
2022/10/31 13:43:18;;;;;;;38.40;25.30;;;;;;;14.54;89.29;100643.27;124966;1296;99019;-73
2022/10/31 13:46:35;;;;;;;40.20;25.30;;;;;;;14.55;89.10;100646.02;124958;1296;99285;-72
2022/10/31 13:49:41;;;;;;;42.40;27.30;;;;;;;14.56;89.20;100645.39;125035;1299;98018;-72
2022/10/31 13:52:47;;;;;;;45.40;28.30;;;;;;;14.53;89.14;100644.91;125039;1296;98073;-73
2022/10/31 13:56:11;;;;;;;33.80;22.10;;;;;;;14.49;89.12;100643.41;125013;1305;99173;-73
2022/10/31 13:59:23;;;;;;;37.50;23.60;;;;;;;14.46;89.51;100641.48;124876;1304;98041;-74
2022/10/31 14:02:31;;;;;;;38.60;25.20;;;;;;;14.45;89.47;100644.56;125171;1296;98107;-75
2022/10/31 14:05:37;;;;;;;38.60;24.50;;;;;;;14.45;89.51;100647.05;125195;1304;99061;-73
2022/10/31 14:08:51;;;;;;;40.80;26.00;;;;;;;14.45;89.47;100643.33;125250;1302;98097;-73
2022/10/31 14:11:58;;;;;;;39.30;24.90;;;;;;;14.45;89.65;100645.51;125273;1296;98803;-75
2022/10/31 14:15:19;;;;;;;39.70;25.20;;;;;;;14.42;89.66;100638.55;124966;1289;98556;-73
2022/10/31 14:18:30;;;;;;;35.10;22.70;;;;;;;14.38;89.70;100643.05;124960;1306;99118;-73
2022/10/31 14:21:41;;;;;;;36.00;24.40;;;;;;;14.37;89.83;100639.09;124974;1296;99039;-74
2022/10/31 14:24:47;;;;;;;39.50;26.30;;;;;;;14.37;89.96;100636.94;125016;1297;98827;-74
2022/10/31 14:27:53;;;;;;;39.80;26.60;;;;;;;14.37;89.95;100636.90;124986;1297;98034;-71